Talleyville, Delaware
Current Conditions -  °F | °C
As of 11:30 PM on Sunday 25 Jan 2015 (Local Time) from KILG Reporting Station
Light Rain Light Rain  
Wind Chill: 30°   Ceiling: 1200
Heat Index: 38°   Visibility: 7mi
Dew Point: 34°   Wind: 13mph
Humidity: 86%   Direction: 60°ENE
Pressure: 29.93"   Gusts: NA
Location:  39.7973°N, 75.5445°W
Report Text: KILG 260430Z 06011KT 7SM -RA BKN012 OVC047 03/01 A2993 RMK AO2 RAE0355B26 P0000 T00330011
Loading
Personal Weather Stations






























Interactive Weather Map New forecast layout! Learn more

10-Day Weather Forecast

Advertisements
Track Severe Weather on mobile